sensor_id;sensor_type;location;lat;lon;timestamp;pressure;altitude;pressure_sealevel;temperature;humidity
65546;BME280;52177;55.968;37.498;2023-03-22T00:00:00;99110.38;;;4.40;79.47
65546;BME280;52177;55.968;37.498;2023-03-22T00:00:30;99117.28;;;4.41;79.30
65546;BME280;52177;55.968;37.498;2023-03-22T00:01:14;99113.50;;;4.44;79.34
65546;BME280;52177;55.968;37.498;2023-03-22T00:01:45;99116.16;;;4.44;79.25
65546;BME280;52177;55.968;37.498;2023-03-22T00:02:15;99116.31;;;4.42;78.94
65546;BME280;52177;55.968;37.498;2023-03-22T00:02:46;99115.47;;;4.42;79.06
65546;BME280;52177;55.968;37.498;2023-03-22T00:03:16;99119.25;;;4.39;79.12
65546;BME280;52177;55.968;37.498;2023-03-22T00:03:48;99116.78;;;4.38;79.33
65546;BME280;52177;55.968;37.498;2023-03-22T00:04:18;99120.25;;;4.38;79.37
65546;BME280;52177;55.968;37.498;2023-03-22T00:04:49;99110.81;;;4.36;79.53
65546;BME280;52177;55.968;37.498;2023-03-22T00:05:19;99118.56;;;4.37;79.59
65546;BME280;52177;55.968;37.498;2023-03-22T00:05:55;99119.56;;;4.36;79.44
65546;BME280;52177;55.968;37.498;2023-03-22T00:06:26;99111.94;;;4.33;79.68
65546;BME280;52177;55.968;37.498;2023-03-22T00:06:56;99120.97;;;4.31;79.97
65546;BME280;52177;55.968;37.498;2023-03-22T00:07:26;99116.69;;;4.30;80.03
65546;BME280;52177;55.968;37.498;2023-03-22T00:07:57;99120.16;;;4.30;80.08
65546;BME280;52177;55.968;37.498;2023-03-22T00:08:27;99116.69;;;4.30;80.20
65546;BME280;52177;55.968;37.498;2023-03-22T00:08:58;99115.56;;;4.32;80.11
65546;BME280;52177;55.968;37.498;2023-03-22T00:09:28;99118.19;;;4.32;79.96
65546;BME280;52177;55.968;37.498;2023-03-22T00:09:58;99115.69;;;4.31;79.98
65546;BME280;52177;55.968;37.498;2023-03-22T00:10:29;99116.81;;;4.28;80.26
65546;BME280;52177;55.968;37.498;2023-03-22T00:10:59;99120.97;;;4.31;80.17
65546;BME280;52177;55.968;37.498;2023-03-22T00:11:30;99116.69;;;4.30;80.16
65546;BME280;52177;55.968;37.498;2023-03-22T00:12:00;99113.38;;;4.28;80.16
65546;BME280;52177;55.968;37.498;2023-03-22T00:12:31;99115.50;;;4.24;80.30
65546;BME280;52177;55.968;37.498;2023-03-22T00:13:02;99122.28;;;4.27;80.23
65546;BME280;52177;55.968;37.498;2023-03-22T00:13:34;99124.09;;;4.26;80.32
65546;BME280;52177;55.968;37.498;2023-03-22T00:14:06;99124.22;;;4.25;80.28
65546;BME280;52177;55.968;37.498;2023-03-22T00:14:36;99126.88;;;4.25;80.49
65546;BME280;52177;55.968;37.498;2023-03-22T00:15:07;99112.00;;;4.23;80.55
65546;BME280;52177;55.968;37.498;2023-03-22T00:15:38;99125.19;;;4.23;80.57
65546;BME280;52177;55.968;37.498;2023-03-22T00:16:09;99127.00;;;4.23;80.66
65546;BME280;52177;55.968;37.498;2023-03-22T00:16:40;99123.56;;;4.22;80.58
65546;BME280;52177;55.968;37.498;2023-03-22T00:17:10;99129.66;;;4.23;80.78
65546;BME280;52177;55.968;37.498;2023-03-22T00:17:40;99125.19;;;4.23;80.33
65546;BME280;52177;55.968;37.498;2023-03-22T00:18:11;99124.38;;;4.23;80.48
65546;BME280;52177;55.968;37.498;2023-03-22T00:18:41;99115.78;;;4.21;80.52
65546;BME280;52177;55.968;37.498;2023-03-22T00:19:11;99128.28;;;4.19;80.74
65546;BME280;52177;55.968;37.498;2023-03-22T00:19:42;99129.97;;;4.20;80.80
65546;BME280;52177;55.968;37.498;2023-03-22T00:20:14;99122.03;;;4.20;80.85
65546;BME280;52177;55.968;37.498;2023-03-22T00:20:48;99121.22;;;4.19;80.93
65546;BME280;52177;55.968;37.498;2023-03-22T00:21:19;99125.81;;;4.17;81.06
65546;BME280;52177;55.968;37.498;2023-03-22T00:21:49;99124.81;;;4.18;81.08
65546;BME280;52177;55.968;37.498;2023-03-22T00:22:20;99125.00;;;4.17;81.16
65546;BME280;52177;55.968;37.498;2023-03-22T00:22:51;99126.09;;;4.14;81.35
65546;BME280;52177;55.968;37.498;2023-03-22T00:23:22;99128.06;;;4.12;81.34
65546;BME280;52177;55.968;37.498;2023-03-22T00:23:53;99131.66;;;4.11;81.36
65546;BME280;52177;55.968;37.498;2023-03-22T00:24:23;99121.13;;;4.11;81.55
65546;BME280;52177;55.968;37.498;2023-03-22T00:24:54;99121.94;;;4.12;81.44
65546;BME280;52177;55.968;37.498;2023-03-22T00:25:25;99125.44;;;4.12;81.46
65546;BME280;52177;55.968;37.498;2023-03-22T00:25:55;99121.13;;;4.11;81.46
65546;BME280;52177;55.968;37.498;2023-03-22T00:26:26;99119.47;;;4.10;81.72
65546;BME280;52177;55.968;37.498;2023-03-22T00:26:56;99122.13;;;4.10;81.78
65546;BME280;52177;55.968;37.498;2023-03-22T00:27:27;99120.81;;;4.14;81.52
65546;BME280;52177;55.968;37.498;2023-03-22T00:27:58;99123.63;;;4.13;81.68
65546;BME280;52177;55.968;37.498;2023-03-22T00:28:28;99120.00;;;4.14;81.74
65546;BME280;52177;55.968;37.498;2023-03-22T00:28:59;99126.25;;;4.13;81.95
65546;BME280;52177;55.968;37.498;2023-03-22T00:29:29;99122.81;;;4.12;81.94
65546;BME280;52177;55.968;37.498;2023-03-22T00:30:00;99127.22;;;4.12;81.89
65546;BME280;52177;55.968;37.498;2023-03-22T00:30:30;99121.81;;;4.13;81.79
65546;BME280;52177;55.968;37.498;2023-03-22T00:31:01;99124.44;;;4.13;81.85
65546;BME280;52177;55.968;37.498;2023-03-22T00:31:32;99126.41;;;4.11;82.06
65546;BME280;52177;55.968;37.498;2023-03-22T00:32:03;99126.56;;;4.10;82.29
65546;BME280;52177;55.968;37.498;2023-03-22T00:32:34;99129.22;;;4.10;82.49
65546;BME280;52177;55.968;37.498;2023-03-22T00:33:05;99131.00;;;4.09;82.51
65546;BME280;52177;55.968;37.498;2023-03-22T00:33:36;99127.66;;;4.07;82.64
65546;BME280;52177;55.968;37.498;2023-03-22T00:34:06;99127.66;;;4.07;82.78
65546;BME280;52177;55.968;37.498;2023-03-22T00:34:37;99128.66;;;4.06;82.79
65546;BME280;52177;55.968;37.498;2023-03-22T00:35:08;99128.66;;;4.06;82.70
65546;BME280;52177;55.968;37.498;2023-03-22T00:35:39;99128.78;;;4.05;82.66
65546;BME280;52177;55.968;37.498;2023-03-22T00:36:10;99131.44;;;4.05;82.82
65546;BME280;52177;55.968;37.498;2023-03-22T00:36:41;99131.44;;;4.05;82.77
65546;BME280;52177;55.968;37.498;2023-03-22T00:37:11;99129.78;;;4.04;82.88
65546;BME280;52177;55.968;37.498;2023-03-22T00:37:42;99127.97;;;4.04;82.79
65546;BME280;52177;55.968;37.498;2023-03-22T00:38:12;99128.97;;;4.03;82.87
65546;BME280;52177;55.968;37.498;2023-03-22T00:38:43;99137.00;;;4.01;83.06
65546;BME280;52177;55.968;37.498;2023-03-22T00:39:14;99135.06;;;4.04;82.98
65546;BME280;52177;55.968;37.498;2023-03-22T00:39:44;99136.88;;;4.03;83.02
65546;BME280;52177;55.968;37.498;2023-03-22T00:40:15;99134.25;;;4.03;83.10
65546;BME280;52177;55.968;37.498;2023-03-22T00:40:45;99131.44;;;4.05;82.90
65546;BME280;52177;55.968;37.498;2023-03-22T00:41:18;99134.06;;;4.05;82.97
65546;BME280;52177;55.968;37.498;2023-03-22T00:41:49;99137.41;;;4.07;82.90
65546;BME280;52177;55.968;37.498;2023-03-22T00:42:20;99139.06;;;4.08;82.86
65546;BME280;52177;55.968;37.498;2023-03-22T00:42:50;99141.97;;;4.05;82.94
65546;BME280;52177;55.968;37.498;2023-03-22T00:43:21;99139.50;;;4.03;83.06
65546;BME280;52177;55.968;37.498;2023-03-22T00:43:51;99141.16;;;4.04;83.14
65546;BME280;52177;55.968;37.498;2023-03-22T00:44:21;99138.53;;;4.04;83.03
65546;BME280;52177;55.968;37.498;2023-03-22T00:44:52;99141.03;;;4.06;83.14
65546;BME280;52177;55.968;37.498;2023-03-22T00:45:22;99142.97;;;4.04;83.28
65546;BME280;52177;55.968;37.498;2023-03-22T00:45:52;99141.97;;;4.05;83.31
65546;BME280;52177;55.968;37.498;2023-03-22T00:46:23;99140.19;;;4.05;83.36
65546;BME280;52177;55.968;37.498;2023-03-22T00:46:53;99144.63;;;4.05;83.29
65546;BME280;52177;55.968;37.498;2023-03-22T00:47:23;99139.34;;;4.05;83.28
65546;BME280;52177;55.968;37.498;2023-03-22T00:47:54;99147.13;;;4.06;83.34
65546;BME280;52177;55.968;37.498;2023-03-22T00:48:24;99150.59;;;4.07;83.20
65546;BME280;52177;55.968;37.498;2023-03-22T00:48:55;99140.84;;;4.07;83.33
65546;BME280;52177;55.968;37.498;2023-03-22T00:49:25;99139.91;;;4.08;83.21
65546;BME280;52177;55.968;37.498;2023-03-22T00:49:56;99146.81;;;4.09;83.38
65546;BME280;52177;55.968;37.498;2023-03-22T00:50:26;99145.84;;;4.10;83.37
65546;BME280;52177;55.968;37.498;2023-03-22T00:50:57;99151.13;;;4.10;83.16
65546;BME280;52177;55.968;37.498;2023-03-22T00:51:27;99144.84;;;4.11;83.24
65546;BME280;52177;55.968;37.498;2023-03-22T00:51:57;99146.53;;;4.12;83.07
65546;BME280;52177;55.968;37.498;2023-03-22T00:52:28;99144.84;;;4.11;82.85
65546;BME280;52177;55.968;37.498;2023-03-22T00:52:58;99146.69;;;4.11;82.95
65546;BME280;52177;55.968;37.498;2023-03-22T00:53:29;99148.50;;;4.10;83.05
65546;BME280;52177;55.968;37.498;2023-03-22T00:53:59;99138.91;;;4.09;83.02
65546;BME280;52177;55.968;37.498;2023-03-22T00:54:29;99153.09;;;4.08;83.00
65546;BME280;52177;55.968;37.498;2023-03-22T00:55:00;99150.44;;;4.08;82.98
65546;BME280;52177;55.968;37.498;2023-03-22T00:55:30;99150.31;;;4.10;83.04
65546;BME280;52177;55.968;37.498;2023-03-22T00:56:02;99144.84;;;4.11;83.19
65546;BME280;52177;55.968;37.498;2023-03-22T00:56:33;99147.34;;;4.13;83.15
65546;BME280;52177;55.968;37.498;2023-03-22T00:57:06;99151.66;;;4.14;82.98
65546;BME280;52177;55.968;37.498;2023-03-22T00:57:37;99147.19;;;4.14;83.00
65546;BME280;52177;55.968;37.498;2023-03-22T00:58:07;99149.69;;;4.16;83.05
65546;BME280;52177;55.968;37.498;2023-03-22T00:58:37;99145.25;;;4.16;82.88
65546;BME280;52177;55.968;37.498;2023-03-22T00:59:07;99150.50;;;4.16;82.87
65546;BME280;52177;55.968;37.498;2023-03-22T00:59:38;99150.38;;;4.18;82.71
65546;BME280;52177;55.968;37.498;2023-03-22T01:00:09;99151.19;;;4.18;82.79
65546;BME280;52177;55.968;37.498;2023-03-22T01:00:42;99149.38;;;4.19;82.79
65546;BME280;52177;55.968;37.498;2023-03-22T01:01:14;99144.97;;;4.19;82.73
65546;BME280;52177;55.968;37.498;2023-03-22T01:01:44;99151.88;;;4.20;82.72
65546;BME280;52177;55.968;37.498;2023-03-22T01:02:14;99150.91;;;4.21;82.60
65546;BME280;52177;55.968;37.498;2023-03-22T01:02:45;99153.56;;;4.21;82.64
65546;BME280;52177;55.968;37.498;2023-03-22T01:03:16;99156.03;;;4.23;82.56
65546;BME280;52177;55.968;37.498;2023-03-22T01:03:46;99150.63;;;4.25;82.40
65546;BME280;52177;55.968;37.498;2023-03-22T01:04:19;99153.25;;;4.25;82.26
65546;BME280;52177;55.968;37.498;2023-03-22T01:04:54;99157.84;;;4.22;82.36
65546;BME280;52177;55.968;37.498;2023-03-22T01:05:25;99161.47;;;4.21;82.40
65546;BME280;52177;55.968;37.498;2023-03-22T01:05:57;99160.34;;;4.24;82.43
65546;BME280;52177;55.968;37.498;2023-03-22T01:06:27;99156.19;;;4.21;82.44
65546;BME280;52177;55.968;37.498;2023-03-22T01:06:58;99151.88;;;4.20;82.29
65546;BME280;52177;55.968;37.498;2023-03-22T01:07:31;99158.84;;;4.21;82.32
65546;BME280;52177;55.968;37.498;2023-03-22T01:08:05;99157.03;;;4.22;82.37
65546;BME280;52177;55.968;37.498;2023-03-22T01:08:37;99151.75;;;4.22;82.40
65546;BME280;52177;55.968;37.498;2023-03-22T01:09:08;99158.84;;;4.21;82.43
65546;BME280;52177;55.968;37.498;2023-03-22T01:09:44;99164.13;;;4.21;82.36
65546;BME280;52177;55.968;37.498;2023-03-22T01:10:15;99157.03;;;4.22;82.39
65546;BME280;52177;55.968;37.498;2023-03-22T01:10:45;99160.47;;;4.22;82.37
65546;BME280;52177;55.968;37.498;2023-03-22T01:11:17;99159.66;;;4.22;82.23
65546;BME280;52177;55.968;37.498;2023-03-22T01:11:47;99160.47;;;4.22;82.36
65546;BME280;52177;55.968;37.498;2023-03-22T01:12:19;99163.13;;;4.22;82.08
65546;BME280;52177;55.968;37.498;2023-03-22T01:12:49;99160.47;;;4.22;82.09
65546;BME280;52177;55.968;37.498;2023-03-22T01:13:20;99161.47;;;4.21;82.12
65546;BME280;52177;55.968;37.498;2023-03-22T01:13:51;99169.22;;;4.23;82.33
65546;BME280;52177;55.968;37.498;2023-03-22T01:14:23;99170.91;;;4.24;82.25
65546;BME280;52177;55.968;37.498;2023-03-22T01:14:53;99161.31;;;4.23;82.24
65546;BME280;52177;55.968;37.498;2023-03-22T01:15:26;99168.69;;;4.19;82.30
65546;BME280;52177;55.968;37.498;2023-03-22T01:15:57;99162.44;;;4.20;82.36
65546;BME280;52177;55.968;37.498;2023-03-22T01:16:27;99162.44;;;4.20;82.37
65546;BME280;52177;55.968;37.498;2023-03-22T01:16:57;99165.91;;;4.21;82.33
65546;BME280;52177;55.968;37.498;2023-03-22T01:17:28;99166.88;;;4.20;82.19
65546;BME280;52177;55.968;37.498;2023-03-22T01:17:59;99169.38;;;4.21;82.26
65546;BME280;52177;55.968;37.498;2023-03-22T01:18:29;99172.03;;;4.21;82.12
65546;BME280;52177;55.968;37.498;2023-03-22T01:19:00;99172.16;;;4.20;81.92
65546;BME280;52177;55.968;37.498;2023-03-22T01:19:30;99174.66;;;4.21;81.78
65546;BME280;52177;55.968;37.498;2023-03-22T01:20:01;99173.00;;;4.20;81.81
65546;BME280;52177;55.968;37.498;2023-03-22T01:20:31;99169.66;;;4.18;81.87
65546;BME280;52177;55.968;37.498;2023-03-22T01:21:02;99169.66;;;4.18;81.86
65546;BME280;52177;55.968;37.498;2023-03-22T01:21:32;99177.75;;;4.17;81.87
65546;BME280;52177;55.968;37.498;2023-03-22T01:22:04;99172.47;;;4.17;81.94
65546;BME280;52177;55.968;37.498;2023-03-22T01:22:35;99175.25;;;4.15;82.04
65546;BME280;52177;55.968;37.498;2023-03-22T01:23:05;99174.25;;;4.16;82.04
65546;BME280;52177;55.968;37.498;2023-03-22T01:23:36;99171.63;;;4.16;82.08
65546;BME280;52177;55.968;37.498;2023-03-22T01:24:07;99171.63;;;4.16;82.09
65546;BME280;52177;55.968;37.498;2023-03-22T01:24:37;99176.91;;;4.16;82.11
65546;BME280;52177;55.968;37.498;2023-03-22T01:25:08;99171.63;;;4.16;82.24
65546;BME280;52177;55.968;37.498;2023-03-22T01:25:38;99175.09;;;4.17;82.20
65546;BME280;52177;55.968;37.498;2023-03-22T01:26:09;99176.91;;;4.16;82.16
65546;BME280;52177;55.968;37.498;2023-03-22T01:26:39;99173.28;;;4.17;82.14
65546;BME280;52177;55.968;37.498;2023-03-22T01:27:09;99177.56;;;4.18;82.36
65546;BME280;52177;55.968;37.498;2023-03-22T01:27:40;99183.69;;;4.19;82.12
65546;BME280;52177;55.968;37.498;2023-03-22T01:28:10;99181.91;;;4.19;82.13
65546;BME280;52177;55.968;37.498;2023-03-22T01:28:41;99181.91;;;4.19;81.99
65546;BME280;52177;55.968;37.498;2023-03-22T01:29:11;99176.63;;;4.19;82.13
65546;BME280;52177;55.968;37.498;2023-03-22T01:29:42;99183.53;;;4.20;82.10
65546;BME280;52177;55.968;37.498;2023-03-22T01:30:12;99182.56;;;4.21;82.10
65546;BME280;52177;55.968;37.498;2023-03-22T01:30:43;99183.41;;;4.22;82.02
65546;BME280;52177;55.968;37.498;2023-03-22T01:31:13;99182.56;;;4.21;82.03
65546;BME280;52177;55.968;37.498;2023-03-22T01:31:43;99181.59;;;4.22;81.86
65546;BME280;52177;55.968;37.498;2023-03-22T01:32:14;99187.84;;;4.21;82.04
65546;BME280;52177;55.968;37.498;2023-03-22T01:32:44;99184.22;;;4.22;82.06
65546;BME280;52177;55.968;37.498;2023-03-22T01:33:15;99192.97;;;4.23;82.07
65546;BME280;52177;55.968;37.498;2023-03-22T01:33:45;99181.72;;;4.21;82.05
65546;BME280;52177;55.968;37.498;2023-03-22T01:34:16;99188.69;;;4.22;82.11
65546;BME280;52177;55.968;37.498;2023-03-22T01:34:46;99189.50;;;4.22;81.99
65546;BME280;52177;55.968;37.498;2023-03-22T01:35:17;99190.31;;;4.23;81.96
65546;BME280;52177;55.968;37.498;2023-03-22T01:35:47;99191.31;;;4.22;82.04
65546;BME280;52177;55.968;37.498;2023-03-22T01:36:17;99190.50;;;4.21;82.03
65546;BME280;52177;55.968;37.498;2023-03-22T01:36:48;99187.84;;;4.21;81.96
65546;BME280;52177;55.968;37.498;2023-03-22T01:37:19;99189.63;;;4.21;82.07
65546;BME280;52177;55.968;37.498;2023-03-22T01:37:51;99190.50;;;4.21;81.97
65546;BME280;52177;55.968;37.498;2023-03-22T01:38:21;99194.91;;;4.21;82.03
65546;BME280;52177;55.968;37.498;2023-03-22T01:38:51;99196.59;;;4.22;81.97
65546;BME280;52177;55.968;37.498;2023-03-22T01:39:22;99188.81;;;4.20;82.13
65546;BME280;52177;55.968;37.498;2023-03-22T01:39:53;99194.09;;;4.20;82.18
65546;BME280;52177;55.968;37.498;2023-03-22T01:40:25;99197.72;;;4.19;82.27
65546;BME280;52177;55.968;37.498;2023-03-22T01:40:56;99193.28;;;4.20;82.33
65546;BME280;52177;55.968;37.498;2023-03-22T01:41:26;99188.94;;;4.19;82.19
65546;BME280;52177;55.968;37.498;2023-03-22T01:41:57;99192.72;;;4.16;82.13
65546;BME280;52177;55.968;37.498;2023-03-22T01:42:28;99194.41;;;4.17;82.14
65546;BME280;52177;55.968;37.498;2023-03-22T01:42:58;99191.91;;;4.16;82.03
65546;BME280;52177;55.968;37.498;2023-03-22T01:43:29;99192.03;;;4.14;82.17
65546;BME280;52177;55.968;37.498;2023-03-22T01:44:22;99193.84;;;4.14;82.29
65546;BME280;52177;55.968;37.498;2023-03-22T01:45:46;99194.66;;;4.14;82.37
65546;BME280;52177;55.968;37.498;2023-03-22T01:46:16;99193.03;;;4.13;82.39
65546;BME280;52177;55.968;37.498;2023-03-22T01:46:48;99190.38;;;4.13;82.28
65546;BME280;52177;55.968;37.498;2023-03-22T01:47:19;99197.47;;;4.13;82.33
65546;BME280;52177;55.968;37.498;2023-03-22T01:47:59;99201.75;;;4.14;82.18
65546;BME280;52177;55.968;37.498;2023-03-22T01:48:34;99201.63;;;4.15;82.21
65546;BME280;52177;55.968;37.498;2023-03-22T01:49:10;99210.50;;;4.14;82.24
65546;BME280;52177;55.968;37.498;2023-03-22T01:49:42;99201.75;;;4.14;82.26
65546;BME280;52177;55.968;37.498;2023-03-22T01:50:13;99207.22;;;4.12;82.29
65546;BME280;52177;55.968;37.498;2023-03-22T01:50:52;99211.63;;;4.12;82.22
65546;BME280;52177;55.968;37.498;2023-03-22T01:51:25;99219.53;;;4.12;82.40
65546;BME280;52177;55.968;37.498;2023-03-22T01:51:59;99214.44;;;4.10;82.38
65546;BME280;52177;55.968;37.498;2023-03-22T01:52:31;99211.94;;;4.09;82.36
65546;BME280;52177;55.968;37.498;2023-03-22T01:53:02;99218.03;;;4.09;82.47
65546;BME280;52177;55.968;37.498;2023-03-22T01:53:55;99210.28;;;4.08;82.46
65546;BME280;52177;55.968;37.498;2023-03-22T01:54:39;99208.47;;;4.08;82.43
65546;BME280;52177;55.968;37.498;2023-03-22T01:55:12;99213.59;;;4.10;82.35
65546;BME280;52177;55.968;37.498;2023-03-22T01:55:42;99211.78;;;4.10;82.31
65546;BME280;52177;55.968;37.498;2023-03-22T01:56:16;99215.25;;;4.11;82.02
65546;BME280;52177;55.968;37.498;2023-03-22T01:56:49;99218.72;;;4.11;82.21
65546;BME280;52177;55.968;37.498;2023-03-22T01:57:20;99215.25;;;4.11;82.09
65546;BME280;52177;55.968;37.498;2023-03-22T01:57:51;99216.91;;;4.12;82.12
65546;BME280;52177;55.968;37.498;2023-03-22T01:58:22;99218.59;;;4.13;81.94
65546;BME280;52177;55.968;37.498;2023-03-22T01:58:53;99216.75;;;4.13;82.07
65546;BME280;52177;55.968;37.498;2023-03-22T01:59:25;99212.47;;;4.12;81.97
65546;BME280;52177;55.968;37.498;2023-03-22T01:59:56;99219.53;;;4.12;81.95
65546;BME280;52177;55.968;37.498;2023-03-22T02:00:26;99221.34;;;4.11;81.89
65546;BME280;52177;55.968;37.498;2023-03-22T02:00:57;99216.06;;;4.11;81.94
65546;BME280;52177;55.968;37.498;2023-03-22T02:01:28;99217.75;;;4.12;81.88
65546;BME280;52177;55.968;37.498;2023-03-22T02:02:00;99213.88;;;4.07;81.88
65546;BME280;52177;55.968;37.498;2023-03-22T02:02:32;99220.97;;;4.06;82.08
65546;BME280;52177;55.968;37.498;2023-03-22T02:03:03;99220.97;;;4.06;82.06
65546;BME280;52177;55.968;37.498;2023-03-22T02:04:10;99221.66;;;4.08;81.78
65546;BME280;52177;55.968;37.498;2023-03-22T02:04:46;99219.03;;;4.08;81.93
65546;BME280;52177;55.968;37.498;2023-03-22T02:05:20;99219.97;;;4.07;81.98
65546;BME280;52177;55.968;37.498;2023-03-22T02:05:51;99226.09;;;4.08;82.08
65546;BME280;52177;55.968;37.498;2023-03-22T02:06:23;99217.34;;;4.07;81.90
65546;BME280;52177;55.968;37.498;2023-03-22T02:06:55;99225.13;;;4.09;81.89
65546;BME280;52177;55.968;37.498;2023-03-22T02:07:25;99216.38;;;4.08;81.84
65546;BME280;52177;55.968;37.498;2023-03-22T02:07:56;99221.66;;;4.08;81.87
65546;BME280;52177;55.968;37.498;2023-03-22T02:08:27;99224.28;;;4.08;81.90
65546;BME280;52177;55.968;37.498;2023-03-22T02:08:58;99220.66;;;4.09;81.85
65546;BME280;52177;55.968;37.498;2023-03-22T02:09:28;99225.25;;;4.07;81.91
65546;BME280;52177;55.968;37.498;2023-03-22T02:09:59;99219.03;;;4.08;81.81
65546;BME280;52177;55.968;37.498;2023-03-22T02:10:30;99228.75;;;4.08;81.84
65546;BME280;52177;55.968;37.498;2023-03-22T02:11:02;99227.88;;;4.07;81.81
65546;BME280;52177;55.968;37.498;2023-03-22T02:11:41;99224.44;;;4.07;81.75
65546;BME280;52177;55.968;37.498;2023-03-22T02:12:41;99228.88;;;4.06;81.67
65546;BME280;52177;55.968;37.498;2023-03-22T02:13:30;99229.19;;;4.03;81.74
65546;BME280;52177;55.968;37.498;2023-03-22T02:14:13;99230.31;;;4.00;81.81
65546;BME280;52177;55.968;37.498;2023-03-22T02:15:07;99231.97;;;4.01;81.96
65546;BME280;52177;55.968;37.498;2023-03-22T02:15:47;99237.09;;;4.03;81.94
65546;BME280;52177;55.968;37.498;2023-03-22T02:16:39;99237.91;;;4.04;81.82
65546;BME280;52177;55.968;37.498;2023-03-22T02:17:27;99233.47;;;4.04;81.95
65546;BME280;52177;55.968;37.498;2023-03-22T02:18:20;99238.59;;;4.06;81.81
65546;BME280;52177;55.968;37.498;2023-03-22T02:27:48;99247.66;;;4.03;81.73
65546;BME280;52177;55.968;37.498;2023-03-22T02:28:57;99245.84;;;4.04;81.66
65546;BME280;52177;55.968;37.498;2023-03-22T02:31:39;99251.25;;;4.02;81.41
65546;BME280;52177;55.968;37.498;2023-03-22T02:34:33;99259.16;;;4.02;81.50
65546;BME280;52177;55.968;37.498;2023-03-22T02:37:52;99258.72;;;4.07;81.37
65546;BME280;52177;55.968;37.498;2023-03-22T02:39:31;99259.41;;;4.09;81.13
65546;BME280;52177;55.968;37.498;2023-03-22T02:41:22;99260.22;;;4.09;81.03
65546;BME280;52177;55.968;37.498;2023-03-22T02:42:09;99261.91;;;4.10;80.97
65546;BME280;52177;55.968;37.498;2023-03-22T02:43:00;99263.03;;;4.08;80.94
65546;BME280;52177;55.968;37.498;2023-03-22T02:45:15;99262.03;;;4.09;80.72
65546;BME280;52177;55.968;37.498;2023-03-22T02:45:53;99264.56;;;4.10;80.77
65546;BME280;52177;55.968;37.498;2023-03-22T02:47:04;99267.47;;;4.07;80.58
65546;BME280;52177;55.968;37.498;2023-03-22T02:47:45;99265.81;;;4.06;80.69
65546;BME280;52177;55.968;37.498;2023-03-22T02:48:26;99266.63;;;4.07;80.66
65546;BME280;52177;55.968;37.498;2023-03-22T02:49:05;99266.94;;;4.04;80.81
65546;BME280;52177;55.968;37.498;2023-03-22T02:50:13;99271.53;;;4.01;80.70
65546;BME280;52177;55.968;37.498;2023-03-22T02:50:54;99275.81;;;4.02;80.62
65546;BME280;52177;55.968;37.498;2023-03-22T02:51:33;99277.78;;;4.00;80.64
65546;BME280;52177;55.968;37.498;2023-03-22T02:52:24;99273.47;;;3.99;80.61
65546;BME280;52177;55.968;37.498;2023-03-22T02:54:27;99276.84;;;3.92;80.84
65546;BME280;52177;55.968;37.498;2023-03-22T02:55:58;99280.44;;;3.91;80.80
65546;BME280;52177;55.968;37.498;2023-03-22T02:56:39;99284.44;;;3.95;80.48
65546;BME280;52177;55.968;37.498;2023-03-22T02:57:16;99277.34;;;3.95;80.46
65546;BME280;52177;55.968;37.498;2023-03-22T02:58:39;99279.88;;;3.97;80.33
65546;BME280;52177;55.968;37.498;2023-03-22T02:59:15;99275.56;;;3.96;80.21
65546;BME280;52177;55.968;37.498;2023-03-22T02:59:47;99280.97;;;3.94;80.40
65546;BME280;52177;55.968;37.498;2023-03-22T03:00:19;99284.59;;;3.93;80.42
65546;BME280;52177;55.968;37.498;2023-03-22T03:00:54;99285.44;;;3.94;80.53
65546;BME280;52177;55.968;37.498;2023-03-22T03:01:32;99286.38;;;3.93;80.46
65546;BME280;52177;55.968;37.498;2023-03-22T03:02:08;99284.19;;;3.88;80.87
65546;BME280;52177;55.968;37.498;2023-03-22T03:02:46;99292.53;;;3.84;80.93
65546;BME280;52177;55.968;37.498;2023-03-22T03:03:18;99284.47;;;3.85;80.81
65546;BME280;52177;55.968;37.498;2023-03-22T03:03:53;99291.41;;;3.86;80.71
65546;BME280;52177;55.968;37.498;2023-03-22T03:04:31;99289.75;;;3.85;80.64
65546;BME280;52177;55.968;37.498;2023-03-22T03:05:03;99290.59;;;3.86;80.62
65546;BME280;52177;55.968;37.498;2023-03-22T03:05:34;99291.41;;;3.86;80.56
65546;BME280;52177;55.968;37.498;2023-03-22T03:06:15;99294.03;;;3.86;80.58
65546;BME280;52177;55.968;37.498;2023-03-22T03:06:48;99288.09;;;3.84;80.46
65546;BME280;52177;55.968;37.498;2023-03-22T03:07:22;99299.75;;;3.81;80.71
65546;BME280;52177;55.968;37.498;2023-03-22T03:07:56;99287.56;;;3.80;80.52
65546;BME280;52177;55.968;37.498;2023-03-22T03:08:29;99295.47;;;3.80;80.25
65546;BME280;52177;55.968;37.498;2023-03-22T03:09:00;99291.84;;;3.81;80.36
65546;BME280;52177;55.968;37.498;2023-03-22T03:09:35;99298.22;;;3.79;80.50
65546;BME280;52177;55.968;37.498;2023-03-22T03:10:07;99300.88;;;3.79;80.46
65546;BME280;52177;55.968;37.498;2023-03-22T03:10:39;99298.09;;;3.80;80.37
65546;BME280;52177;55.968;37.498;2023-03-22T03:11:10;99304.34;;;3.79;80.30
65546;BME280;52177;55.968;37.498;2023-03-22T03:11:40;99306.31;;;3.77;80.18
65546;BME280;52177;55.968;37.498;2023-03-22T03:12:19;99303.09;;;3.74;80.01
65546;BME280;52177;55.968;37.498;2023-03-22T03:12:50;99299.34;;;3.76;79.74
65546;BME280;52177;55.968;37.498;2023-03-22T03:13:21;99303.41;;;3.71;79.54
65546;BME280;52177;55.968;37.498;2023-03-22T03:13:51;99307.97;;;3.69;79.38
65546;BME280;52177;55.968;37.498;2023-03-22T03:14:27;99303.81;;;3.66;79.32
65546;BME280;52177;55.968;37.498;2023-03-22T03:14:58;99308.69;;;3.61;79.14
65546;BME280;52177;55.968;37.498;2023-03-22T03:15:28;99315.34;;;3.55;79.16
65546;BME280;52177;55.968;37.498;2023-03-22T03:15:59;99314.81;;;3.52;79.27
65546;BME280;52177;55.968;37.498;2023-03-22T03:16:32;99316.06;;;3.48;79.22
65546;BME280;52177;55.968;37.498;2023-03-22T03:17:10;99309.25;;;3.45;79.23
65546;BME280;52177;55.968;37.498;2023-03-22T03:19:07;99324.38;;;3.33;79.49
65546;BME280;52177;55.968;37.498;2023-03-22T03:19:54;99319.25;;;3.32;79.41
65546;BME280;52177;55.968;37.498;2023-03-22T03:21:28;99322.28;;;3.37;78.85